VOBL

Bengaluru International Airport

Airport
ICAO code
VOBL
Summary
ICAO Region
APAC
ICAO Territory
Location

Bangalore, Karnataka,

Coordinates
13° 12' 22" N , 77° 42' 18" E
KCC
Airport WX
Cumulonimbus
Metar
VOBL 231500Z 12008KT 6000 SCT012 SCT020 29/21 Q1007 NOSIG

Description

Bengaluru International Airport is an international airport serving the Indian city of Bangalore and is located 4 km south of Devanahalli and is 40 km from the central business district of Bangalore, in the state of Karnataka, India.

Climatology

Tropical Savanna climate (Köppen climate classification Aw) - monthly mean temperatures above 18°C, and a pronounced dry season. A Tropical Savanna climate has more pronounced dry seasons than a Tropical Monsoon climate.

Airport map

Aerial View

SKYbrary Partners:

Safety knowledge contributed by: